sensor_id;sensor_type;location;lat;lon;timestamp;P1;durP1;ratioP1;P2;durP2;ratioP2
65477;SDS011;53678;39.642;22.430;2022-09-09T00:02:20;11.32;;;5.68;;
65477;SDS011;53678;39.642;22.430;2022-09-09T00:13:19;7.90;;;5.05;;
65477;SDS011;53678;39.642;22.430;2022-09-09T00:21:06;9.57;;;6.38;;
65477;SDS011;53678;39.642;22.430;2022-09-09T00:23:45;11.48;;;6.75;;
65477;SDS011;53678;39.642;22.430;2022-09-09T00:31:30;8.60;;;6.68;;
65477;SDS011;53678;39.642;22.430;2022-09-09T00:34:18;8.95;;;6.45;;
65477;SDS011;53678;39.642;22.430;2022-09-09T00:36:48;9.55;;;6.82;;
65477;SDS011;53678;39.642;22.430;2022-09-09T00:39:27;11.10;;;6.82;;
65477;SDS011;53678;39.642;22.430;2022-09-09T00:44:38;11.50;;;7.15;;
65477;SDS011;53678;39.642;22.430;2022-09-09T00:47:30;11.88;;;7.03;;
65477;SDS011;53678;39.642;22.430;2022-09-09T00:50:24;13.13;;;8.10;;
65477;SDS011;53678;39.642;22.430;2022-09-09T00:56:18;11.05;;;7.35;;
65477;SDS011;53678;39.642;22.430;2022-09-09T00:58:42;9.38;;;6.60;;
65477;SDS011;53678;39.642;22.430;2022-09-09T01:01:21;10.43;;;6.80;;
65477;SDS011;53678;39.642;22.430;2022-09-09T01:03:49;10.18;;;6.85;;
65477;SDS011;53678;39.642;22.430;2022-09-09T01:06:21;10.13;;;6.07;;
65477;SDS011;53678;39.642;22.430;2022-09-09T01:11:22;8.80;;;6.00;;
65477;SDS011;53678;39.642;22.430;2022-09-09T01:13:58;10.93;;;7.35;;
65477;SDS011;53678;39.642;22.430;2022-09-09T01:19:02;10.00;;;7.63;;
65477;SDS011;53678;39.642;22.430;2022-09-09T01:24:38;10.77;;;6.50;;
65477;SDS011;53678;39.642;22.430;2022-09-09T01:27:34;11.60;;;6.13;;
65477;SDS011;53678;39.642;22.430;2022-09-09T01:30:04;8.88;;;6.80;;
65477;SDS011;53678;39.642;22.430;2022-09-09T01:37:47;8.40;;;6.40;;
65477;SDS011;53678;39.642;22.430;2022-09-09T01:40:13;13.55;;;6.75;;
65477;SDS011;53678;39.642;22.430;2022-09-09T01:42:40;10.82;;;7.10;;
65477;SDS011;53678;39.642;22.430;2022-09-09T01:45:06;11.75;;;7.13;;
65477;SDS011;53678;39.642;22.430;2022-09-09T01:47:33;11.00;;;6.43;;
65477;SDS011;53678;39.642;22.430;2022-09-09T01:50:11;10.65;;;6.32;;
65477;SDS011;53678;39.642;22.430;2022-09-09T01:52:42;10.63;;;6.95;;
65477;SDS011;53678;39.642;22.430;2022-09-09T01:55:15;10.60;;;6.93;;
65477;SDS011;53678;39.642;22.430;2022-09-09T01:58:05;9.23;;;6.40;;
65477;SDS011;53678;39.642;22.430;2022-09-09T02:01:11;9.52;;;6.97;;
65477;SDS011;53678;39.642;22.430;2022-09-09T02:04:18;9.70;;;6.80;;
65477;SDS011;53678;39.642;22.430;2022-09-09T02:06:57;12.00;;;6.30;;
65477;SDS011;53678;39.642;22.430;2022-09-09T02:09:27;8.93;;;6.53;;
65477;SDS011;53678;39.642;22.430;2022-09-09T02:12:05;8.95;;;6.10;;
65477;SDS011;53678;39.642;22.430;2022-09-09T02:14:55;8.68;;;5.85;;
65477;SDS011;53678;39.642;22.430;2022-09-09T02:17:33;9.63;;;5.75;;
65477;SDS011;53678;39.642;22.430;2022-09-09T02:20:07;12.27;;;6.30;;
65477;SDS011;53678;39.642;22.430;2022-09-09T02:22:45;8.05;;;5.90;;
65477;SDS011;53678;39.642;22.430;2022-09-09T02:25:17;10.75;;;5.93;;
65477;SDS011;53678;39.642;22.430;2022-09-09T02:27:46;8.15;;;5.75;;
65477;SDS011;53678;39.642;22.430;2022-09-09T02:30:14;16.10;;;6.85;;
65477;SDS011;53678;39.642;22.430;2022-09-09T02:32:48;11.53;;;6.77;;
65477;SDS011;53678;39.642;22.430;2022-09-09T02:35:17;13.38;;;6.32;;
65477;SDS011;53678;39.642;22.430;2022-09-09T02:37:50;7.88;;;5.82;;
65477;SDS011;53678;39.642;22.430;2022-09-09T02:40:18;11.13;;;6.32;;
65477;SDS011;53678;39.642;22.430;2022-09-09T02:42:50;11.80;;;6.38;;
65477;SDS011;53678;39.642;22.430;2022-09-09T02:45:19;9.88;;;5.97;;
65477;SDS011;53678;39.642;22.430;2022-09-09T02:50:29;11.52;;;6.68;;
65477;SDS011;53678;39.642;22.430;2022-09-09T02:58:32;11.05;;;6.00;;
65477;SDS011;53678;39.642;22.430;2022-09-09T03:01:03;10.15;;;6.55;;
65477;SDS011;53678;39.642;22.430;2022-09-09T03:03:30;9.82;;;6.38;;
65477;SDS011;53678;39.642;22.430;2022-09-09T03:05:58;10.18;;;6.78;;
65477;SDS011;53678;39.642;22.430;2022-09-09T03:08:26;11.38;;;7.13;;
65477;SDS011;53678;39.642;22.430;2022-09-09T03:10:57;13.55;;;7.20;;
65477;SDS011;53678;39.642;22.430;2022-09-09T03:15:52;16.30;;;7.95;;
65477;SDS011;53678;39.642;22.430;2022-09-09T03:18:19;10.18;;;7.10;;
65477;SDS011;53678;39.642;22.430;2022-09-09T03:20:49;12.05;;;6.60;;
65477;SDS011;53678;39.642;22.430;2022-09-09T03:23:17;10.55;;;7.20;;
65477;SDS011;53678;39.642;22.430;2022-09-09T03:25:47;10.25;;;6.55;;
65477;SDS011;53678;39.642;22.430;2022-09-09T03:28:15;10.80;;;6.00;;
65477;SDS011;53678;39.642;22.430;2022-09-09T03:30:42;8.63;;;6.45;;
65477;SDS011;53678;39.642;22.430;2022-09-09T03:33:08;13.13;;;7.10;;
65477;SDS011;53678;39.642;22.430;2022-09-09T03:35:34;11.27;;;6.38;;
65477;SDS011;53678;39.642;22.430;2022-09-09T03:38:00;17.50;;;6.78;;
65477;SDS011;53678;39.642;22.430;2022-09-09T03:40:28;10.50;;;6.03;;
65477;SDS011;53678;39.642;22.430;2022-09-09T03:42:54;10.82;;;6.38;;
65477;SDS011;53678;39.642;22.430;2022-09-09T03:45:20;11.52;;;6.25;;
65477;SDS011;53678;39.642;22.430;2022-09-09T03:47:46;12.82;;;7.18;;
65477;SDS011;53678;39.642;22.430;2022-09-09T03:50:12;10.32;;;6.28;;
65477;SDS011;53678;39.642;22.430;2022-09-09T03:52:43;10.45;;;5.68;;
65477;SDS011;53678;39.642;22.430;2022-09-09T03:55:18;16.52;;;6.15;;
65477;SDS011;53678;39.642;22.430;2022-09-09T03:57:44;12.48;;;6.97;;
65477;SDS011;53678;39.642;22.430;2022-09-09T04:00:12;14.77;;;7.40;;
65477;SDS011;53678;39.642;22.430;2022-09-09T04:02:50;17.63;;;7.50;;
65477;SDS011;53678;39.642;22.430;2022-09-09T04:05:19;12.20;;;7.05;;
65477;SDS011;53678;39.642;22.430;2022-09-09T04:07:46;26.77;;;8.35;;
65477;SDS011;53678;39.642;22.430;2022-09-09T04:10:12;17.08;;;7.53;;
65477;SDS011;53678;39.642;22.430;2022-09-09T04:12:39;17.92;;;9.23;;
65477;SDS011;53678;39.642;22.430;2022-09-09T04:15:05;20.67;;;8.88;;
65477;SDS011;53678;39.642;22.430;2022-09-09T04:17:33;21.15;;;9.77;;
65477;SDS011;53678;39.642;22.430;2022-09-09T04:19:59;19.15;;;9.02;;
65477;SDS011;53678;39.642;22.430;2022-09-09T04:22:26;16.35;;;8.35;;
65477;SDS011;53678;39.642;22.430;2022-09-09T04:24:52;17.65;;;8.38;;
65477;SDS011;53678;39.642;22.430;2022-09-09T04:27:19;15.55;;;8.40;;
65477;SDS011;53678;39.642;22.430;2022-09-09T04:29:45;16.42;;;7.90;;
65477;SDS011;53678;39.642;22.430;2022-09-09T04:32:12;10.25;;;6.82;;
65477;SDS011;53678;39.642;22.430;2022-09-09T04:34:39;11.48;;;7.05;;
65477;SDS011;53678;39.642;22.430;2022-09-09T04:37:07;14.43;;;6.90;;
65477;SDS011;53678;39.642;22.430;2022-09-09T04:39:33;15.40;;;7.07;;
65477;SDS011;53678;39.642;22.430;2022-09-09T04:42:00;16.95;;;6.85;;
65477;SDS011;53678;39.642;22.430;2022-09-09T04:44:26;13.45;;;7.00;;
65477;SDS011;53678;39.642;22.430;2022-09-09T04:46:52;15.80;;;7.05;;
65477;SDS011;53678;39.642;22.430;2022-09-09T04:49:19;8.75;;;6.05;;
65477;SDS011;53678;39.642;22.430;2022-09-09T04:51:44;12.27;;;6.28;;
65477;SDS011;53678;39.642;22.430;2022-09-09T04:54:12;12.85;;;6.53;;
65477;SDS011;53678;39.642;22.430;2022-09-09T04:56:40;11.38;;;6.30;;
65477;SDS011;53678;39.642;22.430;2022-09-09T04:59:07;14.05;;;6.30;;
65477;SDS011;53678;39.642;22.430;2022-09-09T05:01:41;14.65;;;6.45;;
65477;SDS011;53678;39.642;22.430;2022-09-09T05:04:07;13.23;;;6.38;;
65477;SDS011;53678;39.642;22.430;2022-09-09T05:06:34;11.70;;;5.75;;
65477;SDS011;53678;39.642;22.430;2022-09-09T05:09:02;17.05;;;6.25;;
65477;SDS011;53678;39.642;22.430;2022-09-09T05:11:30;12.85;;;5.95;;
65477;SDS011;53678;39.642;22.430;2022-09-09T05:14:20;13.05;;;5.93;;
65477;SDS011;53678;39.642;22.430;2022-09-09T05:16:46;10.50;;;5.57;;
65477;SDS011;53678;39.642;22.430;2022-09-09T05:19:13;12.88;;;6.03;;
65477;SDS011;53678;39.642;22.430;2022-09-09T05:21:48;14.52;;;6.55;;
65477;SDS011;53678;39.642;22.430;2022-09-09T05:24:19;16.50;;;7.18;;
65477;SDS011;53678;39.642;22.430;2022-09-09T05:26:48;12.35;;;6.88;;
65477;SDS011;53678;39.642;22.430;2022-09-09T05:29:14;13.48;;;6.05;;
65477;SDS011;53678;39.642;22.430;2022-09-09T05:31:40;14.90;;;6.47;;
65477;SDS011;53678;39.642;22.430;2022-09-09T05:34:10;11.63;;;5.72;;
65477;SDS011;53678;39.642;22.430;2022-09-09T05:36:37;10.57;;;6.00;;
65477;SDS011;53678;39.642;22.430;2022-09-09T05:39:03;12.50;;;5.63;;
65477;SDS011;53678;39.642;22.430;2022-09-09T05:41:31;11.25;;;6.53;;
65477;SDS011;53678;39.642;22.430;2022-09-09T05:43:59;12.70;;;6.22;;
65477;SDS011;53678;39.642;22.430;2022-09-09T05:46:26;8.85;;;4.82;;
65477;SDS011;53678;39.642;22.430;2022-09-09T05:48:53;10.32;;;5.47;;
65477;SDS011;53678;39.642;22.430;2022-09-09T05:53:56;15.10;;;5.93;;
65477;SDS011;53678;39.642;22.430;2022-09-09T05:56:28;10.55;;;5.18;;
65477;SDS011;53678;39.642;22.430;2022-09-09T05:58:56;9.00;;;5.55;;
65477;SDS011;53678;39.642;22.430;2022-09-09T06:01:24;7.47;;;5.18;;
65477;SDS011;53678;39.642;22.430;2022-09-09T06:06:23;17.10;;;7.40;;
65477;SDS011;53678;39.642;22.430;2022-09-09T06:08:57;13.85;;;6.22;;
65477;SDS011;53678;39.642;22.430;2022-09-09T06:11:33;14.18;;;6.38;;
65477;SDS011;53678;39.642;22.430;2022-09-09T06:14:02;10.23;;;5.68;;
65477;SDS011;53678;39.642;22.430;2022-09-09T06:16:30;8.70;;;5.88;;
65477;SDS011;53678;39.642;22.430;2022-09-09T06:18:58;14.15;;;6.10;;
65477;SDS011;53678;39.642;22.430;2022-09-09T06:21:28;11.23;;;5.88;;
65477;SDS011;53678;39.642;22.430;2022-09-09T06:23:56;14.50;;;6.15;;
65477;SDS011;53678;39.642;22.430;2022-09-09T06:26:23;11.85;;;6.00;;
65477;SDS011;53678;39.642;22.430;2022-09-09T06:28:52;13.60;;;7.15;;
65477;SDS011;53678;39.642;22.430;2022-09-09T06:31:20;14.43;;;6.68;;
65477;SDS011;53678;39.642;22.430;2022-09-09T06:33:49;10.32;;;6.38;;
65477;SDS011;53678;39.642;22.430;2022-09-09T06:36:18;11.50;;;5.80;;
65477;SDS011;53678;39.642;22.430;2022-09-09T06:38:46;13.88;;;6.85;;
65477;SDS011;53678;39.642;22.430;2022-09-09T06:41:14;14.07;;;7.10;;
65477;SDS011;53678;39.642;22.430;2022-09-09T06:43:44;12.73;;;6.97;;
65477;SDS011;53678;39.642;22.430;2022-09-09T06:46:16;13.65;;;7.60;;
65477;SDS011;53678;39.642;22.430;2022-09-09T06:48:54;14.23;;;7.72;;
65477;SDS011;53678;39.642;22.430;2022-09-09T06:51:26;13.52;;;7.25;;
65477;SDS011;53678;39.642;22.430;2022-09-09T06:53:55;11.05;;;7.97;;
65477;SDS011;53678;39.642;22.430;2022-09-09T06:56:24;10.63;;;7.25;;
65477;SDS011;53678;39.642;22.430;2022-09-09T06:59:06;13.90;;;7.20;;
65477;SDS011;53678;39.642;22.430;2022-09-09T07:01:36;13.07;;;6.93;;
65477;SDS011;53678;39.642;22.430;2022-09-09T07:04:08;11.30;;;7.18;;
65477;SDS011;53678;39.642;22.430;2022-09-09T07:06:39;13.43;;;6.50;;
65477;SDS011;53678;39.642;22.430;2022-09-09T07:09:11;12.07;;;6.37;;
65477;SDS011;53678;39.642;22.430;2022-09-09T07:11:41;13.70;;;7.95;;
65477;SDS011;53678;39.642;22.430;2022-09-09T07:14:10;10.88;;;6.13;;
65477;SDS011;53678;39.642;22.430;2022-09-09T07:16:41;11.27;;;6.65;;
65477;SDS011;53678;39.642;22.430;2022-09-09T07:19:08;7.75;;;5.18;;
65477;SDS011;53678;39.642;22.430;2022-09-09T07:21:36;11.77;;;5.28;;
65477;SDS011;53678;39.642;22.430;2022-09-09T07:24:01;7.70;;;4.90;;
65477;SDS011;53678;39.642;22.430;2022-09-09T07:26:29;8.95;;;4.90;;
65477;SDS011;53678;39.642;22.430;2022-09-09T07:28:58;9.93;;;5.38;;
65477;SDS011;53678;39.642;22.430;2022-09-09T07:33:53;8.40;;;5.50;;
65477;SDS011;53678;39.642;22.430;2022-09-09T07:36:20;8.77;;;5.13;;
65477;SDS011;53678;39.642;22.430;2022-09-09T07:38:53;6.25;;;4.10;;
65477;SDS011;53678;39.642;22.430;2022-09-09T07:41:22;11.20;;;5.18;;
65477;SDS011;53678;39.642;22.430;2022-09-09T07:43:51;8.30;;;5.53;;
65477;SDS011;53678;39.642;22.430;2022-09-09T07:46:20;10.05;;;5.40;;
65477;SDS011;53678;39.642;22.430;2022-09-09T07:48:48;12.85;;;5.80;;
65477;SDS011;53678;39.642;22.430;2022-09-09T07:51:25;6.97;;;4.45;;
65477;SDS011;53678;39.642;22.430;2022-09-09T07:53:53;8.82;;;4.75;;
65477;SDS011;53678;39.642;22.430;2022-09-09T07:58:52;9.00;;;4.30;;
65477;SDS011;53678;39.642;22.430;2022-09-09T08:01:24;6.82;;;3.95;;
65477;SDS011;53678;39.642;22.430;2022-09-09T08:04:03;7.80;;;4.55;;
65477;SDS011;53678;39.642;22.430;2022-09-09T08:06:31;7.00;;;4.30;;
65477;SDS011;53678;39.642;22.430;2022-09-09T08:09:02;8.85;;;4.03;;
65477;SDS011;53678;39.642;22.430;2022-09-09T08:11:30;15.43;;;5.55;;
65477;SDS011;53678;39.642;22.430;2022-09-09T08:13:59;26.52;;;15.43;;
65477;SDS011;53678;39.642;22.430;2022-09-09T08:16:26;6.78;;;4.40;;
65477;SDS011;53678;39.642;22.430;2022-09-09T08:18:58;5.35;;;3.88;;
65477;SDS011;53678;39.642;22.430;2022-09-09T08:21:26;4.88;;;3.47;;
65477;SDS011;53678;39.642;22.430;2022-09-09T08:23:56;8.05;;;4.25;;
65477;SDS011;53678;39.642;22.430;2022-09-09T08:26:25;6.72;;;4.50;;
65477;SDS011;53678;39.642;22.430;2022-09-09T08:28:54;8.80;;;3.80;;
65477;SDS011;53678;39.642;22.430;2022-09-09T08:31:24;12.40;;;4.10;;
65477;SDS011;53678;39.642;22.430;2022-09-09T08:33:54;7.60;;;3.92;;
65477;SDS011;53678;39.642;22.430;2022-09-09T08:36:21;7.22;;;3.65;;
65477;SDS011;53678;39.642;22.430;2022-09-09T08:38:53;7.68;;;4.00;;
65477;SDS011;53678;39.642;22.430;2022-09-09T08:44:31;7.13;;;3.90;;
65477;SDS011;53678;39.642;22.430;2022-09-09T08:47:07;7.60;;;3.92;;
65477;SDS011;53678;39.642;22.430;2022-09-09T08:50:00;6.60;;;3.80;;
65477;SDS011;53678;39.642;22.430;2022-09-09T08:58:23;10.57;;;3.72;;
65477;SDS011;53678;39.642;22.430;2022-09-09T09:04:00;7.40;;;3.40;;
65477;SDS011;53678;39.642;22.430;2022-09-09T09:11:49;6.63;;;3.70;;
65477;SDS011;53678;39.642;22.430;2022-09-09T09:14:20;15.02;;;5.40;;
65477;SDS011;53678;39.642;22.430;2022-09-09T09:19:44;6.38;;;3.63;;
65477;SDS011;53678;39.642;22.430;2022-09-09T09:22:16;6.25;;;4.00;;
65477;SDS011;53678;39.642;22.430;2022-09-09T09:24:55;7.22;;;3.55;;
65477;SDS011;53678;39.642;22.430;2022-09-09T09:30:22;5.13;;;3.53;;
65477;SDS011;53678;39.642;22.430;2022-09-09T09:32:53;9.57;;;3.40;;
65477;SDS011;53678;39.642;22.430;2022-09-09T09:35:27;6.15;;;3.70;;
65477;SDS011;53678;39.642;22.430;2022-09-09T09:37:53;11.48;;;3.80;;
65477;SDS011;53678;39.642;22.430;2022-09-09T09:40:20;5.78;;;3.53;;
65477;SDS011;53678;39.642;22.430;2022-09-09T09:42:51;11.02;;;4.10;;
65477;SDS011;53678;39.642;22.430;2022-09-09T09:46:01;11.27;;;3.35;;
65477;SDS011;53678;39.642;22.430;2022-09-09T09:48:12;4.55;;;3.50;;
65477;SDS011;53678;39.642;22.430;2022-09-09T09:50:46;6.47;;;3.80;;
65477;SDS011;53678;39.642;22.430;2022-09-09T09:53:29;9.80;;;4.13;;
65477;SDS011;53678;39.642;22.430;2022-09-09T09:56:25;6.53;;;3.50;;
65477;SDS011;53678;39.642;22.430;2022-09-09T09:58:51;7.78;;;3.67;;
65477;SDS011;53678;39.642;22.430;2022-09-09T10:01:24;6.53;;;3.50;;
65477;SDS011;53678;39.642;22.430;2022-09-09T10:04:12;6.55;;;3.33;;
65477;SDS011;53678;39.642;22.430;2022-09-09T10:06:39;4.93;;;3.60;;
65477;SDS011;53678;39.642;22.430;2022-09-09T10:11:55;7.47;;;4.00;;
65477;SDS011;53678;39.642;22.430;2022-09-09T10:20:20;5.60;;;3.35;;
65477;SDS011;53678;39.642;22.430;2022-09-09T10:31:13;9.55;;;3.70;;
65477;SDS011;53678;39.642;22.430;2022-09-09T10:36:32;6.05;;;3.40;;
65477;SDS011;53678;39.642;22.430;2022-09-09T10:39:03;5.78;;;3.17;;
65477;SDS011;53678;39.642;22.430;2022-09-09T10:44:17;5.30;;;3.42;;
65477;SDS011;53678;39.642;22.430;2022-09-09T10:55:52;4.85;;;3.50;;
65477;SDS011;53678;39.642;22.430;2022-09-09T10:58:56;10.68;;;4.60;;
65477;SDS011;53678;39.642;22.430;2022-09-09T11:02:01;4.38;;;3.10;;
65477;SDS011;53678;39.642;22.430;2022-09-09T11:06:44;4.38;;;3.03;;
65477;SDS011;53678;39.642;22.430;2022-09-09T11:09:17;5.38;;;3.53;;
65477;SDS011;53678;39.642;22.430;2022-09-09T11:11:55;6.25;;;3.72;;
65477;SDS011;53678;39.642;22.430;2022-09-09T11:14:36;4.57;;;3.17;;
65477;SDS011;53678;39.642;22.430;2022-09-09T11:19:42;4.57;;;2.97;;
65477;SDS011;53678;39.642;22.430;2022-09-09T11:24:55;9.60;;;3.72;;
65477;SDS011;53678;39.642;22.430;2022-09-09T11:38:45;11.35;;;3.58;;
65477;SDS011;53678;39.642;22.430;2022-09-09T11:41:13;7.90;;;3.80;;
65477;SDS011;53678;39.642;22.430;2022-09-09T11:46:06;9.52;;;4.35;;
65477;SDS011;53678;39.642;22.430;2022-09-09T11:48:37;7.65;;;4.25;;
65477;SDS011;53678;39.642;22.430;2022-09-09T11:51:09;7.22;;;3.58;;
65477;SDS011;53678;39.642;22.430;2022-09-09T11:53:51;6.18;;;3.67;;
65477;SDS011;53678;39.642;22.430;2022-09-09T12:01:28;6.95;;;3.58;;
65477;SDS011;53678;39.642;22.430;2022-09-09T12:12:07;5.85;;;4.07;;
65477;SDS011;53678;39.642;22.430;2022-09-09T12:17:20;9.48;;;4.20;;
65477;SDS011;53678;39.642;22.430;2022-09-09T12:26:18;8.45;;;3.67;;
65477;SDS011;53678;39.642;22.430;2022-09-09T12:28:32;6.55;;;3.78;;
65477;SDS011;53678;39.642;22.430;2022-09-09T12:34:34;6.72;;;3.70;;
65477;SDS011;53678;39.642;22.430;2022-09-09T12:39:56;6.53;;;3.90;;
65477;SDS011;53678;39.642;22.430;2022-09-09T12:42:25;6.05;;;3.95;;
65477;SDS011;53678;39.642;22.430;2022-09-09T12:44:58;8.30;;;3.60;;
65477;SDS011;53678;39.642;22.430;2022-09-09T12:47:40;5.60;;;3.55;;
65477;SDS011;53678;39.642;22.430;2022-09-09T12:58:35;14.63;;;3.88;;
65477;SDS011;53678;39.642;22.430;2022-09-09T13:01:03;5.30;;;3.28;;
65477;SDS011;53678;39.642;22.430;2022-09-09T13:03:31;6.22;;;3.60;;
65477;SDS011;53678;39.642;22.430;2022-09-09T13:05:59;6.70;;;3.45;;
65477;SDS011;53678;39.642;22.430;2022-09-09T13:08:37;8.30;;;3.58;;
65477;SDS011;53678;39.642;22.430;2022-09-09T13:11:06;7.40;;;4.07;;
65477;SDS011;53678;39.642;22.430;2022-09-09T13:13:39;5.88;;;3.65;;
65477;SDS011;53678;39.642;22.430;2022-09-09T13:16:07;6.93;;;3.85;;
65477;SDS011;53678;39.642;22.430;2022-09-09T13:18:45;6.43;;;3.60;;
65477;SDS011;53678;39.642;22.430;2022-09-09T13:21:12;9.35;;;3.53;;
65477;SDS011;53678;39.642;22.430;2022-09-09T13:23:39;6.68;;;3.10;;
65477;SDS011;53678;39.642;22.430;2022-09-09T13:26:24;10.90;;;4.15;;
65477;SDS011;53678;39.642;22.430;2022-09-09T13:28:51;5.55;;;3.50;;
65477;SDS011;53678;39.642;22.430;2022-09-09T13:31:23;5.75;;;3.65;;
65477;SDS011;53678;39.642;22.430;2022-09-09T13:33:53;6.43;;;3.10;;
65477;SDS011;53678;39.642;22.430;2022-09-09T13:36:27;6.32;;;3.38;;
65477;SDS011;53678;39.642;22.430;2022-09-09T13:38:56;7.10;;;3.60;;
65477;SDS011;53678;39.642;22.430;2022-09-09T13:41:28;7.15;;;3.20;;
65477;SDS011;53678;39.642;22.430;2022-09-09T13:43:59;5.10;;;2.85;;
65477;SDS011;53678;39.642;22.430;2022-09-09T13:51:38;6.53;;;2.90;;
65477;SDS011;53678;39.642;22.430;2022-09-09T13:54:05;6.00;;;2.70;;
65477;SDS011;53678;39.642;22.430;2022-09-09T13:56:34;3.42;;;2.60;;
65477;SDS011;53678;39.642;22.430;2022-09-09T13:59:02;4.63;;;2.40;;
65477;SDS011;53678;39.642;22.430;2022-09-09T14:01:29;5.68;;;2.58;;
65477;SDS011;53678;39.642;22.430;2022-09-09T14:03:55;6.65;;;2.45;;
65477;SDS011;53678;39.642;22.430;2022-09-09T14:06:21;7.57;;;3.10;;
65477;SDS011;53678;39.642;22.430;2022-09-09T14:08:48;4.13;;;2.60;;
65477;SDS011;53678;39.642;22.430;2022-09-09T14:11:16;4.82;;;2.40;;
65477;SDS011;53678;39.642;22.430;2022-09-09T14:13:47;5.05;;;2.60;;
65477;SDS011;53678;39.642;22.430;2022-09-09T14:16:21;3.28;;;2.10;;
65477;SDS011;53678;39.642;22.430;2022-09-09T14:18:47;2.72;;;2.17;;
65477;SDS011;53678;39.642;22.430;2022-09-09T14:21:22;5.18;;;2.42;;
65477;SDS011;53678;39.642;22.430;2022-09-09T14:23:56;5.93;;;2.58;;
65477;SDS011;53678;39.642;22.430;2022-09-09T14:26:23;4.63;;;2.42;;
65477;SDS011;53678;39.642;22.430;2022-09-09T14:28:50;8.25;;;2.03;;
65477;SDS011;53678;39.642;22.430;2022-09-09T14:31:17;4.78;;;2.10;;
65477;SDS011;53678;39.642;22.430;2022-09-09T14:33:44;3.90;;;2.20;;
65477;SDS011;53678;39.642;22.430;2022-09-09T14:36:10;4.25;;;2.00;;
65477;SDS011;53678;39.642;22.430;2022-09-09T14:38:37;4.00;;;2.03;;
65477;SDS011;53678;39.642;22.430;2022-09-09T14:41:14;4.00;;;2.10;;
65477;SDS011;53678;39.642;22.430;2022-09-09T14:43:43;5.78;;;2.58;;
65477;SDS011;53678;39.642;22.430;2022-09-09T14:46:10;5.20;;;2.17;;
65477;SDS011;53678;39.642;22.430;2022-09-09T14:48:38;5.00;;;2.63;;
65477;SDS011;53678;39.642;22.430;2022-09-09T14:51:09;3.28;;;2.15;;
65477;SDS011;53678;39.642;22.430;2022-09-09T14:53:38;3.33;;;2.22;;
65477;SDS011;53678;39.642;22.430;2022-09-09T14:56:06;5.25;;;2.30;;
65477;SDS011;53678;39.642;22.430;2022-09-09T14:58:55;5.22;;;2.40;;
65477;SDS011;53678;39.642;22.430;2022-09-09T15:01:22;5.55;;;2.47;;
65477;SDS011;53678;39.642;22.430;2022-09-09T15:03:51;3.88;;;2.20;;
65477;SDS011;53678;39.642;22.430;2022-09-09T15:06:19;3.95;;;2.13;;
65477;SDS011;53678;39.642;22.430;2022-09-09T15:08:45;3.50;;;2.13;;
65477;SDS011;53678;39.642;22.430;2022-09-09T15:11:12;5.00;;;2.17;;
65477;SDS011;53678;39.642;22.430;2022-09-09T15:13:40;6.40;;;2.50;;
65477;SDS011;53678;39.642;22.430;2022-09-09T15:16:12;4.80;;;2.55;;
65477;SDS011;53678;39.642;22.430;2022-09-09T15:19:16;8.18;;;2.58;;
65477;SDS011;53678;39.642;22.430;2022-09-09T15:21:41;4.28;;;2.47;;
65477;SDS011;53678;39.642;22.430;2022-09-09T15:24:07;4.75;;;2.50;;
65477;SDS011;53678;39.642;22.430;2022-09-09T15:26:34;3.45;;;2.20;;
65477;SDS011;53678;39.642;22.430;2022-09-09T15:29:03;5.10;;;3.00;;
65477;SDS011;53678;39.642;22.430;2022-09-09T15:31:30;6.60;;;2.60;;
65477;SDS011;53678;39.642;22.430;2022-09-09T15:34:00;4.18;;;2.55;;
65477;SDS011;53678;39.642;22.430;2022-09-09T15:39:02;3.42;;;2.70;;
65477;SDS011;53678;39.642;22.430;2022-09-09T15:41:29;6.68;;;2.65;;
65477;SDS011;53678;39.642;22.430;2022-09-09T15:43:57;3.88;;;2.25;;
65477;SDS011;53678;39.642;22.430;2022-09-09T15:46:24;4.65;;;2.33;;
65477;SDS011;53678;39.642;22.430;2022-09-09T15:48:57;6.47;;;2.53;;
65477;SDS011;53678;39.642;22.430;2022-09-09T15:51:41;6.38;;;2.90;;
65477;SDS011;53678;39.642;22.430;2022-09-09T15:54:15;5.75;;;2.70;;
65477;SDS011;53678;39.642;22.430;2022-09-09T15:56:56;4.68;;;2.30;;
65477;SDS011;53678;39.642;22.430;2022-09-09T15:59:27;4.30;;;2.55;;
65477;SDS011;53678;39.642;22.430;2022-09-09T16:01:56;4.40;;;2.70;;
65477;SDS011;53678;39.642;22.430;2022-09-09T16:04:26;6.85;;;2.40;;
65477;SDS011;53678;39.642;22.430;2022-09-09T16:06:55;8.30;;;2.38;;
65477;SDS011;53678;39.642;22.430;2022-09-09T16:09:27;6.63;;;2.60;;
65477;SDS011;53678;39.642;22.430;2022-09-09T16:11:57;5.05;;;2.90;;
65477;SDS011;53678;39.642;22.430;2022-09-09T16:14:26;4.00;;;2.50;;
65477;SDS011;53678;39.642;22.430;2022-09-09T16:16:52;4.25;;;2.60;;
65477;SDS011;53678;39.642;22.430;2022-09-09T16:19:19;4.95;;;3.13;;
65477;SDS011;53678;39.642;22.430;2022-09-09T16:21:46;6.32;;;3.45;;
65477;SDS011;53678;39.642;22.430;2022-09-09T16:24:15;6.63;;;2.85;;
65477;SDS011;53678;39.642;22.430;2022-09-09T16:26:44;4.05;;;2.50;;
65477;SDS011;53678;39.642;22.430;2022-09-09T16:29:12;5.20;;;2.42;;
65477;SDS011;53678;39.642;22.430;2022-09-09T16:31:39;7.03;;;2.70;;
65477;SDS011;53678;39.642;22.430;2022-09-09T16:34:06;4.30;;;2.85;;
65477;SDS011;53678;39.642;22.430;2022-09-09T16:36:33;4.75;;;2.83;;
65477;SDS011;53678;39.642;22.430;2022-09-09T16:39:02;4.75;;;2.60;;
65477;SDS011;53678;39.642;22.430;2022-09-09T16:41:30;4.85;;;2.42;;
65477;SDS011;53678;39.642;22.430;2022-09-09T16:43:57;3.47;;;2.70;;
65477;SDS011;53678;39.642;22.430;2022-09-09T16:46:25;4.38;;;2.53;;
65477;SDS011;53678;39.642;22.430;2022-09-09T16:48:52;5.85;;;2.90;;
65477;SDS011;53678;39.642;22.430;2022-09-09T16:51:22;3.35;;;2.40;;
65477;SDS011;53678;39.642;22.430;2022-09-09T16:54:00;4.50;;;2.55;;
65477;SDS011;53678;39.642;22.430;2022-09-09T16:56:29;5.10;;;2.85;;
65477;SDS011;53678;39.642;22.430;2022-09-09T16:58:59;3.05;;;2.40;;
65477;SDS011;53678;39.642;22.430;2022-09-09T17:01:27;4.57;;;2.80;;
65477;SDS011;53678;39.642;22.430;2022-09-09T17:03:59;5.72;;;2.58;;
65477;SDS011;53678;39.642;22.430;2022-09-09T17:06:27;8.93;;;3.00;;
65477;SDS011;53678;39.642;22.430;2022-09-09T17:08:55;6.18;;;3.35;;
65477;SDS011;53678;39.642;22.430;2022-09-09T17:11:22;8.40;;;3.05;;
65477;SDS011;53678;39.642;22.430;2022-09-09T17:13:51;4.80;;;2.70;;
65477;SDS011;53678;39.642;22.430;2022-09-09T17:16:19;4.88;;;2.95;;
65477;SDS011;53678;39.642;22.430;2022-09-09T17:18:49;4.10;;;2.70;;
65477;SDS011;53678;39.642;22.430;2022-09-09T17:21:18;4.75;;;2.80;;
65477;SDS011;53678;39.642;22.430;2022-09-09T17:23:49;6.80;;;2.97;;
65477;SDS011;53678;39.642;22.430;2022-09-09T17:26:21;7.13;;;2.90;;
65477;SDS011;53678;39.642;22.430;2022-09-09T17:28:55;5.35;;;2.72;;
65477;SDS011;53678;39.642;22.430;2022-09-09T17:31:23;4.30;;;2.65;;
65477;SDS011;53678;39.642;22.430;2022-09-09T17:33:50;5.88;;;2.92;;
65477;SDS011;53678;39.642;22.430;2022-09-09T17:36:21;5.60;;;3.05;;
65477;SDS011;53678;39.642;22.430;2022-09-09T17:38:49;7.40;;;2.83;;
65477;SDS011;53678;39.642;22.430;2022-09-09T17:41:20;5.55;;;3.00;;
65477;SDS011;53678;39.642;22.430;2022-09-09T17:43:52;6.18;;;2.88;;
65477;SDS011;53678;39.642;22.430;2022-09-09T17:48:47;6.28;;;2.97;;
65477;SDS011;53678;39.642;22.430;2022-09-09T17:51:17;5.60;;;2.90;;
65477;SDS011;53678;39.642;22.430;2022-09-09T17:53:45;5.20;;;3.47;;